Time;durP1;ratioP1;P1;durP2;ratioP2;P2;SDS_P1;SDS_P2;PMS_P1;PMS_P2;Temp;Humidity;BMP_temperature;BMP_pressure;BME280_temperature;BME280_humidity;BME280_pressure;Samples;Min_cycle;Max_cycle;Signal;HPM_P1;HPM_P2
2023/01/31 00:01:53;;;;;;;0.93;0.50;;;2.90;68.40;;;;;;6227435;28;20265;-62
2023/01/31 00:04:54;;;;;;;0.40;0.40;;;2.90;68.40;;;;;;6231259;28;20197;-62
2023/01/31 00:07:55;;;;;;;1.00;0.57;;;2.90;68.30;;;;;;6211800;28;20192;-62
2023/01/31 00:10:58;;;;;;;0.50;0.50;;;2.90;68.00;;;;;;6233340;28;20194;-62
2023/01/31 00:13:59;;;;;;;1.17;0.43;;;2.90;68.20;;;;;;6241049;28;20222;-62
2023/01/31 00:17:00;;;;;;;0.30;0.30;;;3.00;67.60;;;;;;6221267;28;20218;-62
2023/01/31 00:20:01;;;;;;;0.50;0.33;;;3.00;67.70;;;;;;6207845;28;20224;-62
2023/01/31 00:23:01;;;;;;;0.40;0.40;;;3.00;68.20;;;;;;6225036;28;20192;-62
2023/01/31 00:26:24;;;;;;;0.70;0.50;;;2.90;68.70;;;;;;6212685;28;20196;-62
2023/01/31 00:29:25;;;;;;;0.97;0.77;;;2.80;69.00;;;;;;6232718;28;20188;-62
2023/01/31 00:32:26;;;;;;;0.70;0.40;;;2.80;69.10;;;;;;6205850;28;20190;-62
2023/01/31 00:35:27;;;;;;;1.57;0.70;;;2.80;69.20;;;;;;6237281;28;20205;-62
2023/01/31 00:38:28;;;;;;;0.30;0.30;;;2.80;69.80;;;;;;6211049;28;20195;-62
2023/01/31 00:41:29;;;;;;;0.47;0.40;;;2.70;69.40;;;;;;6210303;28;20186;-62
2023/01/31 00:44:30;;;;;;;0.50;0.50;;;2.80;69.60;;;;;;6234708;28;20187;-62
2023/01/31 00:47:31;;;;;;;0.70;0.60;;;2.80;68.70;;;;;;6224124;28;20206;-62
2023/01/31 00:50:31;;;;;;;0.60;0.60;;;2.80;68.90;;;;;;6212192;28;20195;-62
2023/01/31 00:53:32;;;;;;;0.43;0.43;;;2.80;70.10;;;;;;6204980;28;20237;-62
2023/01/31 00:56:33;;;;;;;0.77;0.60;;;2.80;70.30;;;;;;6222162;28;20223;-62
2023/01/31 00:59:33;;;;;;;0.40;0.40;;;2.80;70.80;;;;;;6208518;28;20187;-62
2023/01/31 01:02:34;;;;;;;0.47;0.47;;;2.70;71.40;;;;;;6213060;28;20191;-62
2023/01/31 01:05:35;;;;;;;1.40;0.50;;;2.70;71.60;;;;;;6220369;28;20196;-62
2023/01/31 01:08:38;;;;;;;0.57;0.57;;;2.60;72.00;;;;;;6228960;28;20190;-62
2023/01/31 01:11:39;;;;;;;0.70;0.70;;;2.50;72.50;;;;;;6209944;28;20198;-62
2023/01/31 01:14:39;;;;;;;1.10;0.60;;;2.50;72.70;;;;;;6229688;28;20190;-62
2023/01/31 01:17:40;;;;;;;0.60;0.60;;;2.50;72.80;;;;;;6231579;28;20217;-62
2023/01/31 01:20:41;;;;;;;0.47;0.47;;;2.50;72.90;;;;;;6222516;28;20185;-62
2023/01/31 01:23:42;;;;;;;1.07;0.60;;;2.50;72.80;;;;;;6219125;28;20198;-62
2023/01/31 01:26:44;;;;;;;0.53;0.40;;;2.50;72.60;;;;;;6239004;28;20190;-62
2023/01/31 01:29:45;;;;;;;0.60;0.47;;;2.50;73.00;;;;;;6213146;28;20198;-62
2023/01/31 01:32:46;;;;;;;0.30;0.30;;;2.50;73.00;;;;;;6211053;28;20190;-62
2023/01/31 01:35:46;;;;;;;0.40;0.40;;;2.50;73.00;;;;;;6231988;28;20207;-62
2023/01/31 01:38:47;;;;;;;0.47;0.47;;;2.50;73.20;;;;;;6216805;28;20199;-62
2023/01/31 01:41:50;;;;;;;0.50;0.50;;;2.50;73.00;;;;;;6243082;28;20194;-62
2023/01/31 01:44:59;;;;;;;0.93;0.50;;;2.50;72.90;;;;;;6210921;28;20283;-62
2023/01/31 01:48:05;;;;;;;0.40;0.40;;;2.50;73.10;;;;;;6252367;28;20198;-62
2023/01/31 01:51:07;;;;;;;0.40;0.40;;;2.50;72.70;;;;;;6226240;28;20195;-62
2023/01/31 01:54:17;;;;;;;0.50;0.50;;;2.50;73.00;;;;;;6237325;28;20234;-62
2023/01/31 01:57:29;;;;;;;0.60;0.60;;;2.50;73.00;;;;;;6238164;28;20218;-62
2023/01/31 02:00:32;;;;;;;0.30;0.30;;;2.50;73.30;;;;;;6221402;28;20210;-62
2023/01/31 02:03:33;;;;;;;0.40;0.40;;;2.50;73.40;;;;;;6214692;28;20195;-62
2023/01/31 02:06:34;;;;;;;0.60;0.40;;;2.50;73.90;;;;;;6210800;28;20195;-62
2023/01/31 02:09:45;;;;;;;0.37;0.37;;;2.40;74.20;;;;;;6230638;28;20209;-62
2023/01/31 02:12:46;;;;;;;0.30;0.30;;;2.40;74.60;;;;;;6222121;28;20198;-62
2023/01/31 02:15:47;;;;;;;1.07;0.40;;;2.30;75.00;;;;;;6211289;28;20201;-62
2023/01/31 02:18:48;;;;;;;0.53;0.40;;;2.30;75.30;;;;;;6214992;28;20197;-62
2023/01/31 02:22:11;;;;;;;0.40;0.40;;;2.30;75.40;;;;;;6228128;28;20187;-62
2023/01/31 02:25:33;;;;;;;1.97;0.80;;;2.20;75.50;;;;;;6219296;28;20211;-62
2023/01/31 02:28:58;;;;;;;0.50;0.50;;;2.20;75.80;;;;;;6228545;28;20192;-62
2023/01/31 02:32:32;;;;;;;1.80;0.50;;;2.20;75.90;;;;;;6228425;28;20223;-62
2023/01/31 02:35:57;;;;;;;0.97;0.50;;;2.10;76.10;;;;;;6247365;28;20207;-62
2023/01/31 02:39:27;;;;;;;0.30;0.30;;;2.10;76.30;;;;;;6232561;28;20186;-62
2023/01/31 02:42:43;;;;;;;2.53;0.40;;;2.00;76.60;;;;;;6205322;28;20194;-62
2023/01/31 02:45:56;;;;;;;0.37;0.37;;;2.00;76.70;;;;;;6242785;28;20215;-62
2023/01/31 02:49:06;;;;;;;0.70;0.50;;;2.00;76.70;;;;;;6233586;28;20184;-62
2023/01/31 02:52:34;;;;;;;0.40;0.40;;;2.00;76.50;;;;;;6216856;28;20187;-62
2023/01/31 02:56:18;;;;;;;0.37;0.33;;;2.00;76.70;;;;;;6242358;28;20230;-62
2023/01/31 02:59:25;;;;;;;0.30;0.30;;;2.10;76.30;;;;;;6225328;28;20233;-62
2023/01/31 03:02:26;;;;;;;1.20;0.60;;;2.10;76.20;;;;;;6231463;28;20187;-62
2023/01/31 03:05:28;;;;;;;0.70;0.50;;;2.20;75.80;;;;;;6220752;28;20281;-62
2023/01/31 03:08:30;;;;;;;1.23;0.50;;;2.20;76.00;;;;;;6216562;28;20234;-62
2023/01/31 03:11:52;;;;;;;1.37;0.40;;;2.20;75.80;;;;;;6227009;28;20186;-62
2023/01/31 03:15:23;;;;;;;0.40;0.40;;;2.20;75.80;;;;;;6207894;28;20256;-62
2023/01/31 03:18:28;;;;;;;0.40;0.30;;;2.20;76.10;;;;;;6242338;28;20222;-62
2023/01/31 03:21:59;;;;;;;0.50;0.50;;;2.10;76.10;;;;;;6222784;28;20194;-62
2023/01/31 03:25:01;;;;;;;0.30;0.30;;;2.10;76.10;;;;;;6218253;28;20180;-62
2023/01/31 03:28:08;;;;;;;0.63;0.50;;;2.10;76.40;;;;;;6225645;28;20203;-62
2023/01/31 03:31:23;;;;;;;0.50;0.50;;;2.10;76.60;;;;;;6224042;28;20206;-62
2023/01/31 03:34:25;;;;;;;0.43;0.40;;;2.10;76.60;;;;;;6227484;28;20249;-62
2023/01/31 03:37:58;;;;;;;0.70;0.60;;;2.10;76.60;;;;;;6214534;28;20218;-62
2023/01/31 03:41:21;;;;;;;1.10;0.63;;;2.00;76.80;;;;;;6225926;28;20193;-62
2023/01/31 03:44:40;;;;;;;2.20;0.80;;;2.00;77.30;;;;;;6245309;28;20183;-62
2023/01/31 03:47:44;;;;;;;0.53;0.50;;;2.00;77.50;;;;;;6252467;28;20194;-62
2023/01/31 03:50:56;;;;;;;0.53;0.50;;;2.10;77.20;;;;;;6230592;28;20290;-62
2023/01/31 03:54:05;;;;;;;1.17;0.70;;;2.00;77.50;;;;;;6226972;28;20231;-62
2023/01/31 03:57:41;;;;;;;0.70;0.60;;;2.00;77.30;;;;;;6225639;28;20212;-62
2023/01/31 04:00:43;;;;;;;0.60;0.60;;;2.00;77.30;;;;;;6179396;28;20210;-62
2023/01/31 04:03:54;;;;;;;0.83;0.80;;;2.00;77.20;;;;;;6231669;28;20183;-62
2023/01/31 04:06:56;;;;;;;0.70;0.70;;;2.10;77.20;;;;;;6226826;28;20250;-62
2023/01/31 04:09:57;;;;;;;0.70;0.70;;;2.00;77.40;;;;;;6221385;28;20205;-62
2023/01/31 04:12:57;;;;;;;0.60;0.50;;;2.00;77.90;;;;;;6217720;28;20195;-62
2023/01/31 04:15:58;;;;;;;0.63;0.40;;;1.90;77.80;;;;;;6225103;28;20215;-64
2023/01/31 04:18:59;;;;;;;1.90;0.50;;;1.90;77.80;;;;;;6210400;28;20223;-63
2023/01/31 04:22:00;;;;;;;1.50;0.47;;;1.90;78.20;;;;;;6216494;28;20186;-63
2023/01/31 04:25:00;;;;;;;0.50;0.50;;;1.80;78.40;;;;;;6214233;28;20192;-63
2023/01/31 04:28:01;;;;;;;0.50;0.50;;;1.80;78.10;;;;;;6223506;28;20241;-61
2023/01/31 04:31:02;;;;;;;0.63;0.60;;;1.80;78.60;;;;;;6208041;28;20219;-62
2023/01/31 04:34:03;;;;;;;0.67;0.60;;;1.80;78.60;;;;;;6201078;28;20199;-62
2023/01/31 04:37:03;;;;;;;0.63;0.47;;;1.80;78.30;;;;;;6220131;28;20214;-62
2023/01/31 04:40:05;;;;;;;0.40;0.40;;;1.80;78.10;;;;;;6236348;28;20189;-62
2023/01/31 04:43:05;;;;;;;1.50;0.70;;;1.80;78.40;;;;;;6213501;28;20201;-62
2023/01/31 04:46:06;;;;;;;0.67;0.60;;;1.80;78.30;;;;;;6213186;28;20195;-63
2023/01/31 04:49:08;;;;;;;1.63;1.47;;;1.80;78.70;;;;;;6210381;28;20201;-63
2023/01/31 04:52:09;;;;;;;1.60;1.00;;;1.80;78.90;;;;;;6224713;28;20198;-62
2023/01/31 04:55:11;;;;;;;0.97;0.90;;;1.80;78.70;;;;;;6211713;28;20221;-63
2023/01/31 04:58:11;;;;;;;1.23;0.80;;;1.90;78.30;;;;;;6213060;28;20232;-63
2023/01/31 05:01:12;;;;;;;1.10;0.80;;;1.90;78.00;;;;;;6219532;28;20198;-62
2023/01/31 05:04:13;;;;;;;2.50;1.17;;;1.90;77.50;;;;;;6221920;28;20196;-62
2023/01/31 05:07:14;;;;;;;2.27;1.47;;;1.90;77.30;;;;;;6243315;28;20195;-62
2023/01/31 05:10:15;;;;;;;1.83;1.30;;;1.90;76.90;;;;;;6212189;28;20202;-62
2023/01/31 05:13:15;;;;;;;2.20;1.30;;;1.90;76.90;;;;;;6244384;28;20265;-62
2023/01/31 05:16:16;;;;;;;2.10;1.50;;;1.90;77.00;;;;;;6230720;28;20239;-62
2023/01/31 05:19:17;;;;;;;1.80;1.00;;;2.00;76.60;;;;;;6228409;28;20218;-62
2023/01/31 05:22:21;;;;;;;1.63;1.23;;;2.10;75.30;;;;;;6214816;28;20191;-62
2023/01/31 05:25:22;;;;;;;1.60;1.13;;;2.10;75.10;;;;;;6232985;28;20198;-62
2023/01/31 05:28:24;;;;;;;0.80;0.80;;;2.20;75.10;;;;;;6221473;28;20191;-62
2023/01/31 05:31:25;;;;;;;0.63;0.50;;;2.20;74.90;;;;;;6214606;28;20191;-63
2023/01/31 05:34:29;;;;;;;0.70;0.60;;;2.20;74.80;;;;;;6212261;28;20194;-63
2023/01/31 05:37:30;;;;;;;3.07;0.83;;;2.20;75.00;;;;;;6224806;28;20215;-63
2023/01/31 05:40:30;;;;;;;1.90;0.80;;;2.10;75.70;;;;;;6212992;28;20194;-63
2023/01/31 05:43:31;;;;;;;1.20;0.93;;;2.10;75.80;;;;;;6231474;28;20263;-63
2023/01/31 05:46:32;;;;;;;2.73;0.97;;;2.10;76.00;;;;;;6207299;28;20226;-63
2023/01/31 05:49:33;;;;;;;1.30;1.20;;;2.00;76.40;;;;;;6202475;28;20197;-63
2023/01/31 05:52:33;;;;;;;2.17;1.13;;;2.00;76.20;;;;;;6222161;28;20336;-63
2023/01/31 05:55:34;;;;;;;1.10;1.00;;;2.00;76.50;;;;;;6247501;28;20195;-63
2023/01/31 05:58:35;;;;;;;5.30;0.80;;;2.00;76.80;;;;;;6229457;28;20192;-63
2023/01/31 06:01:36;;;;;;;1.70;1.17;;;2.00;76.10;;;;;;6227232;28;20202;-63
2023/01/31 06:04:37;;;;;;;1.70;1.07;;;2.00;76.10;;;;;;6231157;28;20194;-63
2023/01/31 06:07:38;;;;;;;2.30;1.10;;;2.00;77.00;;;;;;6217273;28;20195;-65
2023/01/31 06:10:38;;;;;;;0.93;0.93;;;2.00;76.90;;;;;;6210552;28;20192;-64
2023/01/31 06:13:44;;;;;;;0.80;0.80;;;2.00;76.80;;;;;;6226684;28;20249;-65
2023/01/31 06:16:44;;;;;;;1.23;0.87;;;2.00;76.60;;;;;;6212367;28;20218;-65
2023/01/31 06:19:45;;;;;;;1.20;1.00;;;2.00;75.90;;;;;;6216878;28;20215;-65
2023/01/31 06:22:46;;;;;;;4.83;1.60;;;2.10;75.60;;;;;;6214820;28;20207;-65
2023/01/31 06:25:51;;;;;;;0.90;0.80;;;2.10;74.90;;;;;;6242212;28;20191;-65
2023/01/31 06:28:51;;;;;;;1.40;0.80;;;2.10;74.70;;;;;;6202543;28;20196;-65
2023/01/31 06:31:52;;;;;;;1.90;0.67;;;2.10;73.80;;;;;;6211800;28;20217;-66
2023/01/31 06:34:53;;;;;;;2.07;0.80;;;2.10;73.10;;;;;;6212002;28;20222;-65
2023/01/31 06:37:54;;;;;;;0.80;0.80;;;2.20;73.20;;;;;;6212587;28;20252;-65
2023/01/31 06:40:55;;;;;;;1.43;0.80;;;2.20;73.50;;;;;;6230076;28;20190;-65
2023/01/31 06:43:56;;;;;;;1.10;0.87;;;2.20;71.80;;;;;;6226847;28;20213;-65
2023/01/31 06:46:56;;;;;;;0.67;0.63;;;2.20;71.60;;;;;;6212968;28;20225;-64
2023/01/31 06:49:57;;;;;;;0.50;0.50;;;2.30;71.40;;;;;;6197659;28;20197;-65
2023/01/31 06:52:58;;;;;;;1.23;0.80;;;2.40;70.70;;;;;;6212624;28;20228;-65
2023/01/31 06:55:58;;;;;;;0.83;0.83;;;2.40;69.40;;;;;;6208830;28;20266;-65
2023/01/31 06:58:59;;;;;;;0.63;0.60;;;2.50;69.50;;;;;;6207382;28;20234;-66
2023/01/31 07:02:00;;;;;;;0.70;0.70;;;2.50;69.50;;;;;;6207599;28;20191;-65
2023/01/31 07:05:01;;;;;;;1.07;0.80;;;2.50;68.60;;;;;;6208549;28;20189;-65
2023/01/31 07:08:01;;;;;;;2.20;1.20;;;2.50;69.30;;;;;;6215485;28;20240;-65
2023/01/31 07:11:03;;;;;;;1.20;1.10;;;2.50;68.60;;;;;;6222590;28;20187;-65
2023/01/31 07:14:04;;;;;;;3.73;1.00;;;2.50;68.10;;;;;;6210505;28;20199;-65
2023/01/31 07:17:05;;;;;;;1.30;1.20;;;2.50;67.30;;;;;;6211717;28;20211;-65
2023/01/31 07:20:06;;;;;;;1.93;1.00;;;2.50;67.90;;;;;;6206819;28;20200;-65
2023/01/31 07:23:07;;;;;;;2.20;1.00;;;2.50;68.50;;;;;;6207641;28;20184;-65
2023/01/31 07:26:08;;;;;;;1.10;1.00;;;2.50;69.10;;;;;;6206526;28;20199;-65
2023/01/31 07:29:10;;;;;;;1.77;1.67;;;2.50;68.10;;;;;;6239312;28;20209;-65
2023/01/31 07:32:11;;;;;;;4.33;1.53;;;2.50;66.80;;;;;;6221789;28;20191;-65
2023/01/31 07:35:12;;;;;;;2.03;1.10;;;2.60;64.20;;;;;;6229936;28;20286;-65
2023/01/31 07:38:13;;;;;;;1.03;0.80;;;2.80;62.80;;;;;;6197437;28;20303;-65
2023/01/31 07:41:13;;;;;;;1.10;1.00;;;2.90;62.60;;;;;;6207044;28;20232;-66
2023/01/31 07:44:15;;;;;;;1.60;1.00;;;2.90;62.40;;;;;;6202948;28;20193;-65
2023/01/31 07:47:15;;;;;;;2.03;1.20;;;2.90;62.50;;;;;;6222643;28;20225;-65
2023/01/31 07:50:16;;;;;;;2.47;1.27;;;3.00;59.80;;;;;;6209080;28;20204;-65
2023/01/31 07:53:18;;;;;;;2.53;1.20;;;3.10;59.30;;;;;;6205393;28;20263;-65
2023/01/31 07:56:20;;;;;;;1.93;1.20;;;3.10;59.70;;;;;;6205202;28;20222;-65
2023/01/31 07:59:21;;;;;;;2.10;1.27;;;3.10;60.70;;;;;;6221735;28;20179;-65
2023/01/31 08:05:44;;;;;;;1.90;1.17;;;3.30;62.20;;;;;;6222153;28;20191;-65
2023/01/31 08:08:45;;;;;;;2.03;1.13;;;3.20;63.40;;;;;;6216336;28;20275;-65
2023/01/31 08:11:45;;;;;;;1.20;1.00;;;3.10;63.60;;;;;;6220551;28;20179;-65
2023/01/31 08:14:46;;;;;;;2.23;1.60;;;3.10;64.60;;;;;;6221625;28;20182;-65
2023/01/31 08:17:47;;;;;;;2.17;1.30;;;3.10;65.10;;;;;;6221076;28;20231;-65
2023/01/31 08:20:47;;;;;;;1.80;1.23;;;3.10;65.60;;;;;;6204838;28;20257;-65
2023/01/31 08:23:48;;;;;;;3.53;1.57;;;3.10;66.00;;;;;;6205618;28;20206;-65
2023/01/31 08:26:49;;;;;;;2.10;1.50;;;3.00;65.60;;;;;;6231802;28;20191;-65
2023/01/31 08:29:50;;;;;;;2.10;1.77;;;3.00;66.20;;;;;;6209501;28;20190;-65
2023/01/31 08:32:51;;;;;;;2.43;1.40;;;3.10;64.60;;;;;;6206141;28;20226;-65
2023/01/31 08:35:51;;;;;;;1.77;1.43;;;3.10;64.30;;;;;;6201443;28;20229;-65
2023/01/31 08:38:52;;;;;;;3.83;1.90;;;3.10;64.70;;;;;;6221006;28;20182;-65
2023/01/31 08:41:53;;;;;;;2.67;1.30;;;3.30;63.40;;;;;;6205255;28;20187;-65
2023/01/31 08:44:54;;;;;;;1.47;1.30;;;3.30;64.50;;;;;;6204514;28;20195;-65
2023/01/31 08:47:56;;;;;;;3.50;1.30;;;3.40;65.60;;;;;;6210149;28;20195;-65
2023/01/31 08:51:00;;;;;;;6.40;1.80;;;3.50;65.60;;;;;;6213368;28;20187;-65
2023/01/31 08:54:01;;;;;;;4.07;1.63;;;3.50;64.70;;;;;;6223842;28;20264;-65
2023/01/31 08:57:02;;;;;;;2.00;1.20;;;3.50;64.50;;;;;;6224763;28;20221;-65
2023/01/31 09:00:03;;;;;;;2.50;1.50;;;3.60;64.70;;;;;;6204975;28;20205;-65
2023/01/31 09:03:03;;;;;;;1.70;1.20;;;3.60;64.50;;;;;;6237131;28;20434;-65
2023/01/31 09:06:07;;;;;;;3.90;1.40;;;3.60;64.50;;;;;;6238876;28;20194;-65
2023/01/31 09:09:08;;;;;;;1.77;1.20;;;3.60;64.30;;;;;;6220730;28;20199;-65
2023/01/31 09:12:08;;;;;;;2.53;1.40;;;3.70;63.80;;;;;;6208469;28;20274;-65
2023/01/31 09:15:09;;;;;;;4.73;1.70;;;3.70;63.60;;;;;;6205354;28;20187;-65
2023/01/31 09:18:10;;;;;;;2.63;1.40;;;3.80;61.30;;;;;;6220684;28;20245;-65
2023/01/31 09:21:14;;;;;;;6.77;1.90;;;3.90;62.10;;;;;;6232674;28;20183;-65
2023/01/31 09:24:14;;;;;;;3.40;1.80;;;4.00;61.50;;;;;;6225473;28;20198;-65
2023/01/31 09:27:16;;;;;;;3.53;1.40;;;4.10;61.90;;;;;;6218583;28;20288;-65
2023/01/31 09:30:17;;;;;;;4.37;2.10;;;4.10;62.70;;;;;;6209524;28;20326;-65
2023/01/31 09:33:18;;;;;;;4.20;1.70;;;4.20;62.30;;;;;;6233476;28;20199;-65
2023/01/31 09:36:21;;;;;;;3.53;1.67;;;4.40;60.70;;;;;;6216642;28;20228;-65
2023/01/31 09:39:23;;;;;;;2.10;1.40;;;4.40;60.30;;;;;;6231429;28;20274;-65
2023/01/31 09:42:40;;;;;;;1.20;1.00;;;4.50;61.30;;;;;;6225776;28;20183;-65
2023/01/31 09:45:43;;;;;;;8.20;2.00;;;4.50;61.20;;;;;;6231803;28;20188;-66
2023/01/31 09:48:48;;;;;;;2.03;1.40;;;4.60;56.20;;;;;;6230732;28;20190;-65
2023/01/31 09:51:55;;;;;;;3.90;1.47;;;4.70;56.70;;;;;;6224595;28;20179;-65
2023/01/31 09:54:56;;;;;;;2.00;1.43;;;4.80;53.50;;;;;;6227985;28;20228;-65
2023/01/31 09:58:08;;;;;;;2.77;1.23;;;4.90;55.00;;;;;;6225769;28;20218;-66
2023/01/31 10:01:27;;;;;;;2.13;1.70;;;4.90;55.60;;;;;;6240777;28;20226;-65
2023/01/31 10:05:10;;;;;;;2.50;1.30;;;5.00;56.00;;;;;;6218044;28;20194;-66
2023/01/31 10:08:35;;;;;;;1.83;1.57;;;5.10;51.50;;;;;;6196194;28;20290;-65
2023/01/31 10:11:50;;;;;;;1.80;1.00;;;5.20;47.30;;;;;;6224763;28;20195;-66
2023/01/31 10:15:09;;;;;;;1.27;0.90;;;5.40;46.80;;;;;;6224291;28;20194;-65
2023/01/31 10:18:16;;;;;;;0.87;0.87;;;5.50;47.30;;;;;;6226940;28;20207;-65
2023/01/31 10:21:22;;;;;;;0.93;0.80;;;5.60;46.30;;;;;;6229964;28;20183;-65
2023/01/31 10:24:34;;;;;;;1.00;0.90;;;5.70;45.20;;;;;;6223768;28;20255;-65
2023/01/31 10:27:43;;;;;;;2.70;1.13;;;5.70;46.20;;;;;;6223750;28;20232;-65
2023/01/31 10:31:11;;;;;;;1.77;0.90;;;5.80;45.60;;;;;;6223761;28;20227;-65
2023/01/31 10:34:36;;;;;;;2.97;0.87;;;5.90;44.30;;;;;;6215844;28;20192;-65
2023/01/31 10:37:46;;;;;;;0.80;0.70;;;6.00;45.70;;;;;;6212713;28;20212;-65
2023/01/31 10:40:54;;;;;;;1.60;0.80;;;6.10;43.50;;;;;;6224075;28;20195;-65
2023/01/31 10:44:12;;;;;;;2.60;1.03;;;6.10;42.50;;;;;;6224181;28;20191;-65
2023/01/31 10:47:15;;;;;;;1.77;1.10;;;6.20;42.20;;;;;;6221476;28;20218;-66
2023/01/31 10:51:03;;;;;;;2.70;0.97;;;6.30;41.70;;;;;;6223257;28;20195;-65
2023/01/31 10:54:24;;;;;;;2.13;0.60;;;6.30;42.40;;;;;;6150024;28;20226;-65
2023/01/31 10:57:25;;;;;;;0.73;0.57;;;6.30;42.50;;;;;;6219149;28;20215;-65
2023/01/31 11:00:30;;;;;;;2.50;0.80;;;6.30;42.50;;;;;;6210778;28;20207;-65
2023/01/31 11:03:31;;;;;;;2.57;0.90;;;6.30;43.00;;;;;;6222244;28;20211;-65
2023/01/31 11:06:31;;;;;;;2.83;1.10;;;6.40;41.80;;;;;;6211501;28;20201;-65
2023/01/31 11:09:38;;;;;;;1.93;0.80;;;6.30;42.70;;;;;;6210702;28;20198;-66
2023/01/31 11:12:41;;;;;;;0.77;0.77;;;6.30;43.00;;;;;;6229552;28;20207;-65
2023/01/31 11:15:42;;;;;;;0.63;0.63;;;6.40;42.50;;;;;;6224096;28;20246;-65
2023/01/31 11:18:48;;;;;;;1.90;1.10;;;6.30;42.00;;;;;;6205993;28;20195;-65
2023/01/31 11:21:53;;;;;;;1.90;0.97;;;6.40;41.90;;;;;;6235360;28;20273;-65
2023/01/31 11:24:56;;;;;;;0.90;0.80;;;6.40;41.60;;;;;;6230328;28;20270;-65
2023/01/31 11:28:03;;;;;;;2.63;1.27;;;6.40;42.50;;;;;;6223092;28;20188;-65
2023/01/31 11:31:08;;;;;;;1.20;1.10;;;6.40;42.50;;;;;;6221896;28;20310;-65
2023/01/31 11:34:29;;;;;;;1.97;0.90;;;6.40;41.20;;;;;;6223395;28;20183;-65
2023/01/31 11:37:32;;;;;;;2.70;1.10;;;6.40;41.20;;;;;;6223331;28;20266;-66
2023/01/31 11:40:35;;;;;;;0.67;0.67;;;6.40;41.60;;;;;;6238976;28;20192;-65
2023/01/31 11:43:36;;;;;;;1.03;0.90;;;6.40;42.10;;;;;;6220981;28;20187;-65
2023/01/31 11:46:42;;;;;;;1.53;0.80;;;6.40;41.00;;;;;;6206593;28;20197;-66
2023/01/31 11:49:42;;;;;;;1.77;0.90;;;6.40;41.70;;;;;;6239262;28;20191;-66
2023/01/31 11:52:43;;;;;;;2.90;0.80;;;6.50;42.00;;;;;;6200674;28;20246;-66
2023/01/31 11:55:45;;;;;;;2.03;0.90;;;6.60;41.90;;;;;;6212126;28;20204;-66
2023/01/31 11:58:51;;;;;;;1.93;0.90;;;6.70;40.70;;;;;;6229622;28;20210;-66
2023/01/31 12:01:55;;;;;;;1.07;0.90;;;6.80;41.60;;;;;;6226488;28;20278;-66
2023/01/31 12:04:56;;;;;;;1.20;0.90;;;6.90;42.00;;;;;;6221609;28;20251;-66
2023/01/31 12:07:57;;;;;;;1.03;0.90;;;7.00;41.10;;;;;;6221929;28;20226;-64
2023/01/31 12:10:58;;;;;;;4.63;1.30;;;7.10;41.00;;;;;;6222235;28;20199;-64
2023/01/31 12:14:06;;;;;;;1.10;0.57;;;7.20;41.80;;;;;;6221683;28;20194;-64
2023/01/31 12:17:15;;;;;;;2.23;0.77;;;7.30;39.30;;;;;;6237103;28;20208;-63
2023/01/31 12:20:43;;;;;;;0.83;0.70;;;7.30;39.00;;;;;;6219635;28;20188;-63
2023/01/31 12:23:59;;;;;;;2.73;0.80;;;7.40;39.40;;;;;;6232635;28;20194;-63
2023/01/31 12:27:34;;;;;;;2.40;1.10;;;7.50;39.80;;;;;;6237640;28;20195;-63
2023/01/31 12:30:44;;;;;;;2.50;1.13;;;7.50;38.20;;;;;;6237250;28;20195;-63
2023/01/31 12:34:15;;;;;;;2.10;0.87;;;7.50;38.30;;;;;;6219923;28;20206;-63
2023/01/31 12:37:44;;;;;;;1.30;0.80;;;7.60;39.70;;;;;;6248084;28;20326;-63
2023/01/31 12:40:57;;;;;;;5.03;1.27;;;7.50;38.20;;;;;;6233081;28;20201;-63
2023/01/31 12:44:22;;;;;;;1.30;0.90;;;7.60;38.30;;;;;;6237216;28;20198;-63
2023/01/31 12:47:35;;;;;;;3.23;0.77;;;7.70;38.20;;;;;;6235703;28;20196;-61
2023/01/31 12:50:44;;;;;;;2.17;1.10;;;7.70;41.50;;;;;;6224397;28;20203;-62
2023/01/31 12:53:49;;;;;;;1.80;1.27;;;8.00;37.00;;;;;;6237680;28;20234;-62
2023/01/31 12:57:05;;;;;;;2.00;0.97;;;8.00;37.00;;;;;;6233050;28;20257;-62
2023/01/31 13:00:43;;;;;;;2.53;1.00;;;8.00;38.10;;;;;;6230068;28;20194;-62
2023/01/31 13:03:46;;;;;;;2.30;1.20;;;8.10;37.30;;;;;;6214572;28;20199;-62
2023/01/31 13:06:55;;;;;;;2.93;1.17;;;8.40;36.40;;;;;;6236267;28;20191;-62
2023/01/31 13:09:59;;;;;;;2.47;0.90;;;8.50;35.40;;;;;;6226694;28;20187;-62
2023/01/31 13:13:01;;;;;;;1.33;0.93;;;8.60;35.80;;;;;;6226620;28;20195;-62
2023/01/31 13:16:10;;;;;;;2.67;0.83;;;8.60;36.60;;;;;;6249998;28;20219;-62
2023/01/31 13:19:38;;;;;;;1.77;1.00;;;8.60;37.20;;;;;;6233020;28;20183;-62
2023/01/31 13:22:47;;;;;;;2.47;0.80;;;8.90;34.20;;;;;;6231605;28;20187;-62
2023/01/31 13:25:55;;;;;;;1.20;0.90;;;8.90;36.00;;;;;;6231850;28;20187;-62
2023/01/31 13:29:02;;;;;;;2.63;1.07;;;9.00;36.20;;;;;;6225080;28;20195;-61
2023/01/31 13:32:17;;;;;;;1.80;0.80;;;9.20;35.90;;;;;;6242676;28;20195;-60
2023/01/31 13:35:27;;;;;;;3.60;0.93;;;9.40;37.50;;;;;;6224610;28;20214;-60
2023/01/31 13:38:35;;;;;;;2.83;1.10;;;9.40;35.20;;;;;;6225041;28;20230;-60
2023/01/31 13:41:38;;;;;;;2.93;1.07;;;9.50;35.50;;;;;;6223110;28;20211;-61
2023/01/31 13:44:39;;;;;;;3.13;0.83;;;9.40;35.00;;;;;;6216798;28;20214;-62
2023/01/31 13:47:47;;;;;;;1.87;1.10;;;9.50;34.00;;;;;;6228053;28;20202;-62
2023/01/31 13:50:53;;;;;;;3.03;1.00;;;9.50;34.10;;;;;;6233756;28;20188;-63
2023/01/31 13:54:40;;;;;;;4.00;1.40;;;9.60;33.60;;;;;;6225419;28;20234;-63
2023/01/31 13:57:46;;;;;;;1.47;1.00;;;10.00;33.20;;;;;;6202540;28;20255;-63
2023/01/31 14:00:55;;;;;;;3.40;1.13;;;9.80;34.30;;;;;;6225230;28;20215;-63
2023/01/31 14:04:13;;;;;;;5.03;1.10;;;10.00;33.30;;;;;;6223691;28;20198;-63
2023/01/31 14:07:20;;;;;;;2.50;0.87;;;9.70;34.60;;;;;;6240094;28;20222;-61
2023/01/31 14:10:20;;;;;;;3.13;1.00;;;9.60;34.40;;;;;;6235169;28;20215;-62
2023/01/31 14:13:25;;;;;;;2.00;0.83;;;9.40;35.10;;;;;;6231684;28;20206;-63
2023/01/31 14:16:37;;;;;;;2.90;2.07;;;9.10;34.90;;;;;;6233431;28;20211;-62
2023/01/31 14:19:44;;;;;;;1.53;0.77;;;9.10;34.00;;;;;;6230563;28;20188;-62
2023/01/31 14:23:23;;;;;;;5.77;1.40;;;9.20;35.20;;;;;;6223571;28;20230;-63
2023/01/31 14:26:39;;;;;;;1.93;1.10;;;9.50;34.60;;;;;;6237419;28;20199;-62
2023/01/31 14:29:42;;;;;;;1.53;0.83;;;10.00;33.40;;;;;;6224221;28;20196;-63
2023/01/31 14:33:08;;;;;;;1.40;0.97;;;9.90;32.30;;;;;;6235894;28;20203;-63
2023/01/31 14:36:23;;;;;;;1.20;0.80;;;10.00;32.60;;;;;;6223710;28;20297;-63
2023/01/31 14:39:58;;;;;;;2.83;1.20;;;10.30;34.20;;;;;;6225738;28;20198;-63
2023/01/31 14:43:24;;;;;;;2.70;1.10;;;10.00;31.70;;;;;;6218911;28;20204;-63
2023/01/31 14:46:46;;;;;;;3.30;1.43;;;9.80;33.50;;;;;;6243542;28;20194;-63
2023/01/31 14:50:12;;;;;;;3.20;1.20;;;9.50;34.00;;;;;;6223433;28;20199;-63
2023/01/31 14:53:31;;;;;;;1.67;0.90;;;9.20;33.60;;;;;;6247078;28;20266;-63
2023/01/31 14:56:49;;;;;;;1.80;0.80;;;9.00;34.20;;;;;;6221814;28;20220;-63
2023/01/31 14:59:52;;;;;;;1.37;1.07;;;9.00;35.90;;;;;;6237595;28;20200;-63
2023/01/31 15:03:30;;;;;;;2.30;1.57;;;9.10;34.60;;;;;;6224432;28;20197;-63
2023/01/31 15:06:39;;;;;;;4.97;1.33;;;9.50;34.40;;;;;;6232062;28;20199;-63
2023/01/31 15:09:40;;;;;;;1.50;0.70;;;9.80;33.60;;;;;;6228318;28;20199;-63
2023/01/31 15:13:00;;;;;;;2.63;0.90;;;10.10;32.40;;;;;;6228957;28;20225;-63
2023/01/31 15:16:09;;;;;;;2.20;0.73;;;10.30;31.30;;;;;;6230493;28;20202;-63
2023/01/31 15:19:20;;;;;;;3.07;1.00;;;10.30;31.90;;;;;;6253085;28;20188;-63
2023/01/31 15:22:21;;;;;;;1.83;0.90;;;9.90;31.70;;;;;;6224755;28;20195;-63
2023/01/31 15:25:38;;;;;;;1.07;0.80;;;9.50;32.40;;;;;;6223946;28;20195;-63
2023/01/31 15:28:42;;;;;;;2.37;1.17;;;9.20;33.90;;;;;;6228174;28;20195;-63
2023/01/31 15:31:45;;;;;;;3.37;1.50;;;9.00;34.00;;;;;;6224687;28;20187;-63
2023/01/31 15:34:54;;;;;;;2.77;1.83;;;8.70;34.00;;;;;;6221885;28;20326;-63
2023/01/31 15:38:03;;;;;;;1.83;1.47;;;8.40;33.80;;;;;;6240165;28;20222;-63
2023/01/31 15:41:24;;;;;;;1.57;1.30;;;8.20;35.20;;;;;;6234474;28;20245;-63
2023/01/31 15:44:28;;;;;;;1.43;1.20;;;8.00;37.20;;;;;;6223367;28;20214;-63
2023/01/31 15:47:28;;;;;;;2.77;1.30;;;7.60;37.50;;;;;;6232144;28;20195;-63
2023/01/31 15:50:32;;;;;;;2.77;1.30;;;7.40;36.50;;;;;;6212820;28;20218;-63
2023/01/31 15:53:33;;;;;;;2.87;1.23;;;7.40;35.30;;;;;;6224413;28;20261;-62
2023/01/31 15:56:38;;;;;;;1.93;1.40;;;7.20;38.40;;;;;;6205259;28;20230;-62
2023/01/31 15:59:45;;;;;;;3.47;1.53;;;7.00;36.60;;;;;;6237682;28;20299;-62
2023/01/31 16:02:46;;;;;;;4.17;1.90;;;6.90;37.10;;;;;;6227341;28;20188;-62
2023/01/31 16:05:50;;;;;;;2.17;1.23;;;6.70;37.00;;;;;;6216821;28;20197;-63
2023/01/31 16:08:57;;;;;;;1.83;0.90;;;6.70;37.20;;;;;;6223252;28;20222;-63
2023/01/31 16:11:59;;;;;;;3.93;1.40;;;6.60;37.30;;;;;;6221788;28;20378;-63
2023/01/31 16:15:05;;;;;;;3.80;1.43;;;6.50;39.10;;;;;;6231498;28;20198;-63
2023/01/31 16:18:08;;;;;;;2.73;1.53;;;6.50;38.20;;;;;;6230966;28;20207;-62
2023/01/31 16:21:28;;;;;;;3.87;1.90;;;6.50;37.00;;;;;;6225066;28;20238;-63
2023/01/31 16:24:30;;;;;;;3.53;1.93;;;6.50;36.30;;;;;;6242450;28;20303;-63
2023/01/31 16:27:41;;;;;;;5.00;2.43;;;6.30;37.70;;;;;;6224570;28;20198;-62
2023/01/31 16:30:42;;;;;;;5.07;2.10;;;6.20;38.50;;;;;;6241789;28;20203;-60